Time;durP1;ratioP1;P1;durP2;ratioP2;P2;SDS_P1;SDS_P2;PMS_P1;PMS_P2;Temp;Humidity;BMP_temperature;BMP_pressure;BME280_temperature;BME280_humidity;BME280_pressure;Samples;Min_cycle;Max_cycle;Signal;HPM_P1;HPM_P2
2022/11/26 00:01:04;;;;;;;40.28;8.63;;;11.20;98.10;;;;;;5107204;28;20429;-59
2022/11/26 00:03:30;;;;;;;37.85;9.00;;;11.10;98.10;;;;;;5106985;28;20029;-59
2022/11/26 00:05:55;;;;;;;34.20;8.90;;;11.10;98.10;;;;;;5125273;28;20042;-59
2022/11/26 00:08:26;;;;;;;31.13;8.57;;;11.10;98.10;;;;;;5107180;28;20023;-59
2022/11/26 00:10:52;;;;;;;29.80;8.30;;;11.10;98.10;;;;;;5106994;28;20031;-59
2022/11/26 00:13:22;;;;;;;37.20;8.20;;;11.10;98.10;;;;;;5107178;28;20468;-59
2022/11/26 00:15:48;;;;;;;33.63;7.30;;;11.10;98.10;;;;;;5094728;28;20035;-58
2022/11/26 00:18:15;;;;;;;32.17;8.05;;;11.10;98.20;;;;;;5129459;28;20461;-58
2022/11/26 00:20:40;;;;;;;23.85;7.85;;;11.00;98.10;;;;;;5077443;28;20031;-59
2022/11/26 00:23:09;;;;;;;31.98;7.95;;;11.00;98.20;;;;;;5094194;28;20100;-58
2022/11/26 00:25:39;;;;;;;33.33;8.32;;;11.00;98.10;;;;;;5094458;28;20039;-58
2022/11/26 00:28:26;;;;;;;33.65;8.65;;;11.00;98.10;;;;;;5110813;28;20035;-59
2022/11/26 00:30:52;;;;;;;30.75;8.60;;;11.00;98.20;;;;;;5113497;28;20047;-59
2022/11/26 00:33:18;;;;;;;24.83;8.75;;;11.00;98.20;;;;;;5110767;28;20122;-59
2022/11/26 00:35:45;;;;;;;27.00;8.98;;;11.00;98.10;;;;;;5129249;28;20135;-58
2022/11/26 00:38:14;;;;;;;28.67;9.02;;;11.00;98.10;;;;;;5111181;28;20011;-58
2022/11/26 00:40:39;;;;;;;31.83;9.88;;;11.00;98.10;;;;;;5093925;28;20515;-58
2022/11/26 00:43:05;;;;;;;28.35;8.52;;;11.00;98.10;;;;;;5093404;28;20047;-59
2022/11/26 00:45:31;;;;;;;29.60;8.43;;;11.00;98.20;;;;;;5110358;28;20087;-59
2022/11/26 00:47:56;;;;;;;23.00;8.60;;;10.90;98.20;;;;;;5129464;28;20019;-59
2022/11/26 00:50:23;;;;;;;31.02;8.82;;;10.90;98.20;;;;;;5110765;28;20019;-58
2022/11/26 00:52:51;;;;;;;27.67;7.68;;;10.90;98.20;;;;;;5093459;28;20100;-59
2022/11/26 00:55:28;;;;;;;23.15;8.23;;;10.90;98.20;;;;;;5093414;28;20024;-57
2022/11/26 00:57:54;;;;;;;23.33;7.70;;;10.90;98.40;;;;;;5093820;28;20024;-58
2022/11/26 01:00:26;;;;;;;17.98;7.25;;;10.90;98.20;;;;;;5110231;28;20023;-59
2022/11/26 01:02:52;;;;;;;29.08;7.68;;;10.90;98.20;;;;;;5110502;28;20020;-59
2022/11/26 01:05:18;;;;;;;24.08;8.32;;;10.90;98.20;;;;;;5093425;28;20037;-59
2022/11/26 01:07:44;;;;;;;24.15;8.52;;;10.90;98.20;;;;;;5110386;28;20034;-59
2022/11/26 01:10:22;;;;;;;30.45;8.05;;;10.90;98.20;;;;;;5110500;28;20069;-58
2022/11/26 01:12:48;;;;;;;19.95;8.27;;;10.80;98.20;;;;;;5110410;28;20038;-59
2022/11/26 01:15:14;;;;;;;17.52;7.13;;;10.90;98.20;;;;;;5110749;28;20028;-58
2022/11/26 01:17:40;;;;;;;17.17;7.32;;;10.80;98.20;;;;;;5129307;28;20464;-58
2022/11/26 01:20:41;;;;;;;22.75;7.75;;;10.90;98.20;;;;;;5110335;28;20539;-58
2022/11/26 01:23:08;;;;;;;17.50;7.47;;;10.80;98.20;;;;;;5046273;28;20063;-59
2022/11/26 01:25:34;;;;;;;21.85;7.60;;;10.80;98.10;;;;;;5112359;28;20044;-58
2022/11/26 01:27:59;;;;;;;18.75;7.45;;;10.80;98.20;;;;;;5092791;28;20079;-58
2022/11/26 01:30:28;;;;;;;19.05;7.70;;;10.80;98.20;;;;;;5128205;28;20433;-59
2022/11/26 01:32:54;;;;;;;19.17;8.00;;;10.80;98.20;;;;;;5110110;28;20102;-58
2022/11/26 01:35:20;;;;;;;20.33;8.05;;;10.80;98.20;;;;;;5109573;28;20024;-58
2022/11/26 01:37:45;;;;;;;19.00;7.80;;;10.80;98.20;;;;;;5109839;28;20031;-58
2022/11/26 01:40:35;;;;;;;19.48;7.72;;;10.80;98.20;;;;;;5127750;28;20066;-59
2022/11/26 01:43:05;;;;;;;20.85;8.32;;;10.80;98.20;;;;;;5127680;28;20088;-60
2022/11/26 01:45:30;;;;;;;18.98;8.10;;;10.80;98.20;;;;;;5109313;28;20124;-59
2022/11/26 01:47:56;;;;;;;15.57;7.95;;;10.70;98.20;;;;;;5092337;28;20031;-59
2022/11/26 01:50:30;;;;;;;22.02;7.95;;;10.80;98.20;;;;;;5127521;28;20053;-59
2022/11/26 01:53:02;;;;;;;15.75;7.75;;;10.70;98.20;;;;;;5127611;28;20023;-58
2022/11/26 01:55:33;;;;;;;18.55;7.60;;;10.70;98.20;;;;;;5127524;28;20028;-58
2022/11/26 01:57:58;;;;;;;16.25;7.63;;;10.70;98.20;;;;;;5075960;28;20023;-58
2022/11/26 02:00:24;;;;;;;21.80;7.53;;;10.70;98.30;;;;;;5109069;28;20104;-59
2022/11/26 02:02:49;;;;;;;14.88;7.15;;;10.70;98.30;;;;;;5092129;28;20024;-58
2022/11/26 02:05:27;;;;;;;14.57;7.55;;;10.70;98.30;;;;;;5075305;28;20404;-59
2022/11/26 02:07:52;;;;;;;15.63;7.18;;;10.70;98.30;;;;;;5109474;28;20050;-58
2022/11/26 02:10:18;;;;;;;21.45;6.75;;;10.70;98.30;;;;;;5092255;28;20449;-58
2022/11/26 02:12:43;;;;;;;11.73;6.05;;;10.70;98.30;;;;;;5092143;28;20107;-58
2022/11/26 02:15:09;;;;;;;19.48;7.45;;;10.70;98.30;;;;;;5092049;28;20089;-59
2022/11/26 02:17:54;;;;;;;13.27;6.97;;;10.70;98.30;;;;;;5108892;28;20035;-59
2022/11/26 02:20:22;;;;;;;19.08;7.68;;;10.70;98.20;;;;;;5111280;28;20015;-59
2022/11/26 02:23:11;;;;;;;13.80;6.63;;;10.70;98.20;;;;;;5127542;28;20015;-58
2022/11/26 02:26:04;;;;;;;16.35;7.78;;;10.70;98.10;;;;;;5093180;28;20046;-58
2022/11/26 02:28:38;;;;;;;18.13;7.40;;;10.70;98.10;;;;;;5126993;28;20032;-58
2022/11/26 02:31:22;;;;;;;17.63;7.70;;;10.70;98.10;;;;;;5108374;28;20449;-58
2022/11/26 02:34:07;;;;;;;16.35;7.45;;;10.70;98.10;;;;;;5092635;28;20083;-58
2022/11/26 02:36:46;;;;;;;19.30;7.77;;;10.70;98.10;;;;;;5109955;28;20434;-58
2022/11/26 02:39:16;;;;;;;13.50;6.82;;;10.70;98.10;;;;;;5092969;28;20024;-58
2022/11/26 02:41:50;;;;;;;13.13;6.70;;;10.60;98.20;;;;;;5108183;28;20028;-58
2022/11/26 02:44:18;;;;;;;14.85;7.05;;;10.60;98.20;;;;;;5108265;28;20043;-59
2022/11/26 02:46:46;;;;;;;17.75;7.10;;;10.60;98.20;;;;;;5091766;28;20039;-58
2022/11/26 02:49:13;;;;;;;12.95;7.63;;;10.60;98.20;;;;;;5091527;28;20023;-59
2022/11/26 02:51:38;;;;;;;16.02;7.13;;;10.60;98.20;;;;;;5108179;28;20123;-59
2022/11/26 02:54:04;;;;;;;12.60;7.50;;;10.60;98.20;;;;;;5091273;28;20060;-58
2022/11/26 02:56:30;;;;;;;12.57;6.65;;;10.60;98.20;;;;;;5074435;28;20385;-59
2022/11/26 02:58:56;;;;;;;11.85;6.60;;;10.60;98.20;;;;;;5108032;28;20507;-58
2022/11/26 03:01:30;;;;;;;15.07;7.07;;;10.50;98.20;;;;;;5108038;28;20031;-58
2022/11/26 03:03:58;;;;;;;15.80;6.65;;;10.50;98.20;;;;;;5091324;28;20051;-59
2022/11/26 03:06:24;;;;;;;12.82;7.15;;;10.50;98.20;;;;;;5091054;28;20031;-58
2022/11/26 03:08:50;;;;;;;14.02;7.40;;;10.50;98.20;;;;;;5090775;28;20452;-58
2022/11/26 03:11:15;;;;;;;12.95;6.10;;;10.50;98.30;;;;;;5090787;28;20100;-58
2022/11/26 03:13:41;;;;;;;12.90;6.72;;;10.50;98.40;;;;;;5126096;28;20027;-59
2022/11/26 03:16:06;;;;;;;13.27;7.07;;;10.50;98.50;;;;;;5107578;28;20031;-58
2022/11/26 03:18:32;;;;;;;10.23;6.20;;;10.50;98.50;;;;;;5107667;28;20031;-59
2022/11/26 03:20:58;;;;;;;16.23;7.10;;;10.60;98.70;;;;;;5107558;28;20045;-59
2022/11/26 03:23:23;;;;;;;12.65;6.65;;;10.50;98.60;;;;;;5107546;28;20023;-58
2022/11/26 03:25:49;;;;;;;10.07;6.25;;;10.50;98.70;;;;;;5090363;28;20034;-59
2022/11/26 03:28:14;;;;;;;10.85;6.60;;;10.50;98.90;;;;;;5107615;28;20024;-59
2022/11/26 03:30:40;;;;;;;11.98;6.40;;;10.50;98.70;;;;;;5125716;28;20031;-59
2022/11/26 03:33:05;;;;;;;11.13;6.18;;;10.60;98.70;;;;;;5125949;28;20028;-58
2022/11/26 03:35:31;;;;;;;12.77;6.00;;;10.60;98.70;;;;;;5125585;28;20126;-58
2022/11/26 03:37:56;;;;;;;11.68;6.25;;;10.60;98.60;;;;;;5125566;28;20035;-59
2022/11/26 03:40:22;;;;;;;13.70;6.38;;;10.60;98.60;;;;;;5107436;28;20065;-58
2022/11/26 03:42:47;;;;;;;10.80;5.78;;;10.60;98.50;;;;;;5107135;28;20051;-58
2022/11/26 03:45:13;;;;;;;10.88;5.93;;;10.50;98.40;;;;;;5125649;28;20064;-58
2022/11/26 03:47:38;;;;;;;9.23;5.80;;;10.60;98.40;;;;;;5107030;28;20036;-58
2022/11/26 03:50:05;;;;;;;10.52;6.00;;;10.60;98.40;;;;;;5106731;28;20034;-58
2022/11/26 03:52:31;;;;;;;13.45;5.53;;;10.60;98.40;;;;;;5106866;28;20039;-58
2022/11/26 03:54:56;;;;;;;13.05;6.15;;;10.60;98.50;;;;;;5125307;28;20457;-59
2022/11/26 03:57:22;;;;;;;12.90;6.03;;;10.50;98.40;;;;;;5089954;28;20031;-58
2022/11/26 03:59:47;;;;;;;9.63;5.85;;;10.60;98.40;;;;;;5090170;28;20023;-59
2022/11/26 04:02:13;;;;;;;10.55;5.63;;;10.60;98.40;;;;;;5073495;28;20036;-58
2022/11/26 04:04:38;;;;;;;8.23;5.07;;;10.50;98.40;;;;;;5107173;28;20030;-58
2022/11/26 04:07:04;;;;;;;13.35;5.57;;;10.50;98.40;;;;;;5106910;28;20089;-58
2022/11/26 04:09:29;;;;;;;11.45;5.30;;;10.50;98.40;;;;;;5106827;28;20051;-58
2022/11/26 04:11:55;;;;;;;11.60;5.60;;;10.50;98.40;;;;;;5125420;28;20114;-59
2022/11/26 04:14:20;;;;;;;14.48;5.30;;;10.50;98.40;;;;;;5106942;28;20043;-58
2022/11/26 04:16:46;;;;;;;12.68;6.78;;;10.50;98.40;;;;;;5106974;28;20137;-59
2022/11/26 04:19:12;;;;;;;10.25;7.05;;;10.50;98.40;;;;;;5125353;28;20046;-59
2022/11/26 04:21:37;;;;;;;11.55;6.38;;;10.40;98.40;;;;;;5106713;28;20368;-59
2022/11/26 04:24:03;;;;;;;11.95;7.22;;;10.50;98.40;;;;;;5125238;28;20034;-59
2022/11/26 04:26:28;;;;;;;10.45;6.72;;;10.40;98.30;;;;;;5106889;28;20031;-59
2022/11/26 04:28:54;;;;;;;11.02;6.45;;;10.40;98.30;;;;;;5090069;28;20027;-59
2022/11/26 04:31:19;;;;;;;11.70;5.95;;;10.40;98.60;;;;;;5124973;28;20091;-58
2022/11/26 04:33:45;;;;;;;11.93;6.32;;;10.40;98.30;;;;;;5106746;28;20169;-59
2022/11/26 04:36:11;;;;;;;12.40;6.57;;;10.40;98.60;;;;;;5107064;28;20032;-59
2022/11/26 04:38:36;;;;;;;9.55;5.85;;;10.40;98.30;;;;;;5106608;28;20125;-59
2022/11/26 04:41:02;;;;;;;8.57;5.80;;;10.40;98.30;;;;;;5106686;28;20034;-57
2022/11/26 04:43:28;;;;;;;10.60;5.63;;;10.40;98.20;;;;;;5125189;28;20131;-59
2022/11/26 04:45:53;;;;;;;11.63;6.00;;;10.40;98.20;;;;;;5124887;28;20024;-59
2022/11/26 04:48:19;;;;;;;8.93;5.55;;;10.30;98.20;;;;;;5107029;28;20134;-59
2022/11/26 04:50:44;;;;;;;9.90;5.90;;;10.30;98.20;;;;;;5125518;28;20032;-59
2022/11/26 04:53:10;;;;;;;6.80;5.30;;;10.30;98.10;;;;;;5125290;28;20028;-58
2022/11/26 04:55:35;;;;;;;10.45;5.65;;;10.30;98.10;;;;;;5089690;28;20030;-57
2022/11/26 04:58:01;;;;;;;10.02;5.80;;;10.30;98.10;;;;;;5125333;28;20028;-58
2022/11/26 05:00:27;;;;;;;8.50;5.35;;;10.30;98.20;;;;;;5108743;28;20016;-58
2022/11/26 05:02:52;;;;;;;11.23;5.32;;;10.20;98.20;;;;;;5128718;28;20079;-59
2022/11/26 05:05:18;;;;;;;10.48;4.97;;;10.20;98.10;;;;;;5110327;28;20032;-59
2022/11/26 05:07:43;;;;;;;11.40;5.63;;;10.30;98.00;;;;;;5093475;28;20027;-58
2022/11/26 05:10:09;;;;;;;9.43;4.97;;;10.20;98.00;;;;;;5128471;28;20020;-58
2022/11/26 05:12:35;;;;;;;9.75;5.80;;;10.20;98.00;;;;;;5109983;28;20123;-58
2022/11/26 05:15:01;;;;;;;12.57;9.00;;;10.20;97.90;;;;;;5128657;28;20133;-58
2022/11/26 05:17:27;;;;;;;11.68;8.27;;;10.20;97.90;;;;;;5110390;28;20027;-59
2022/11/26 05:19:52;;;;;;;11.80;7.57;;;10.20;97.80;;;;;;5110472;28;20083;-58
2022/11/26 05:22:18;;;;;;;13.00;6.78;;;10.10;97.80;;;;;;5093021;28;20024;-58
2022/11/26 05:24:44;;;;;;;8.75;5.82;;;10.20;97.80;;;;;;5128219;28;20072;-59
2022/11/26 05:27:09;;;;;;;9.85;6.43;;;10.10;97.80;;;;;;5110562;28;20032;-58
2022/11/26 05:29:35;;;;;;;10.05;6.38;;;10.10;97.80;;;;;;5110838;28;20035;-58
2022/11/26 05:32:00;;;;;;;11.13;5.85;;;10.10;97.70;;;;;;5128703;28;20057;-58
2022/11/26 05:34:26;;;;;;;9.73;5.65;;;10.10;97.70;;;;;;5128542;28;20050;-58
2022/11/26 05:36:51;;;;;;;10.45;6.22;;;10.10;97.70;;;;;;5129056;28;20034;-58
2022/11/26 05:39:17;;;;;;;8.90;5.68;;;10.00;98.00;;;;;;5109983;28;20068;-58
2022/11/26 05:41:43;;;;;;;6.53;5.38;;;10.00;97.70;;;;;;5109730;28;20055;-58
2022/11/26 05:44:08;;;;;;;10.30;6.03;;;10.00;97.70;;;;;;5109729;28;20027;-59
2022/11/26 05:46:38;;;;;;;10.23;5.60;;;10.00;97.70;;;;;;5109454;28;20046;-58
2022/11/26 05:49:03;;;;;;;11.00;5.85;;;10.00;97.70;;;;;;5093108;28;20049;-58
2022/11/26 05:51:29;;;;;;;9.98;5.25;;;10.00;97.70;;;;;;5109412;28;20058;-58
2022/11/26 05:53:54;;;;;;;10.07;5.45;;;10.00;97.70;;;;;;5109217;28;20102;-58
2022/11/26 05:56:20;;;;;;;6.22;4.97;;;9.90;97.60;;;;;;5127698;28;20024;-58
2022/11/26 05:58:46;;;;;;;8.75;5.18;;;9.90;97.60;;;;;;5127540;28;20035;-58
2022/11/26 06:01:11;;;;;;;8.40;6.03;;;9.90;97.60;;;;;;5127495;28;20034;-58
2022/11/26 06:03:37;;;;;;;13.93;6.97;;;9.90;97.60;;;;;;5092310;28;20052;-58
2022/11/26 06:06:03;;;;;;;12.68;6.78;;;9.90;97.60;;;;;;5109100;28;20027;-58
2022/11/26 06:08:28;;;;;;;9.05;5.90;;;9.80;97.60;;;;;;5092012;28;20076;-59
2022/11/26 06:10:54;;;;;;;14.02;5.90;;;9.80;97.70;;;;;;5108307;28;20031;-58
2022/11/26 06:13:19;;;;;;;14.85;6.28;;;9.80;97.70;;;;;;5108598;28;20042;-58
2022/11/26 06:15:45;;;;;;;10.60;6.20;;;9.80;97.60;;;;;;5091894;28;20032;-58
2022/11/26 06:18:10;;;;;;;9.75;5.68;;;9.80;97.60;;;;;;5108937;28;20024;-58
2022/11/26 06:20:36;;;;;;;13.13;6.30;;;9.80;97.60;;;;;;5108699;28;20500;-58
2022/11/26 06:23:02;;;;;;;9.80;5.68;;;9.80;97.50;;;;;;5108988;28;20147;-58
2022/11/26 06:25:27;;;;;;;10.88;5.70;;;9.80;97.70;;;;;;5127115;28;20095;-59
2022/11/26 06:27:54;;;;;;;8.52;4.80;;;9.80;97.40;;;;;;5108635;28;20027;-59
2022/11/26 06:30:20;;;;;;;8.23;5.03;;;9.70;97.40;;;;;;5108726;28;20028;-58
2022/11/26 06:32:46;;;;;;;9.45;5.63;;;9.70;97.50;;;;;;5092028;28;20024;-59
2022/11/26 06:35:11;;;;;;;9.82;5.20;;;9.70;97.50;;;;;;5108481;28;20049;-58
2022/11/26 06:37:37;;;;;;;8.45;5.28;;;9.70;97.60;;;;;;5091413;28;20391;-58
2022/11/26 06:40:03;;;;;;;10.05;5.38;;;9.70;97.60;;;;;;5126679;28;20062;-59
2022/11/26 06:42:28;;;;;;;12.40;4.78;;;9.70;97.60;;;;;;5091102;28;20046;-58
2022/11/26 06:44:54;;;;;;;7.88;4.75;;;9.70;97.60;;;;;;5126573;28;20115;-58
2022/11/26 06:47:20;;;;;;;9.63;5.53;;;9.70;97.50;;;;;;5126791;28;20031;-58
2022/11/26 06:49:45;;;;;;;9.80;4.95;;;9.60;97.50;;;;;;5091297;28;20211;-58
2022/11/26 06:52:11;;;;;;;8.93;4.63;;;9.70;97.50;;;;;;5126555;28;20075;-58
2022/11/26 06:54:37;;;;;;;8.70;4.80;;;9.60;97.50;;;;;;5108052;28;20410;-58
2022/11/26 06:57:02;;;;;;;8.00;4.85;;;9.60;97.60;;;;;;5108388;28;20038;-58
2022/11/26 06:59:28;;;;;;;8.50;4.70;;;9.60;97.50;;;;;;5091223;28;20122;-58
2022/11/26 07:01:54;;;;;;;8.32;4.65;;;9.60;97.50;;;;;;5126554;28;20031;-58
2022/11/26 07:04:19;;;;;;;9.68;4.72;;;9.60;97.60;;;;;;5107776;28;20039;-57
2022/11/26 07:06:45;;;;;;;6.85;4.10;;;9.60;97.60;;;;;;5107991;28;20032;-59
2022/11/26 07:09:10;;;;;;;11.57;4.97;;;9.60;97.60;;;;;;5108088;28;20020;-58
2022/11/26 07:11:36;;;;;;;9.32;4.43;;;9.60;97.70;;;;;;5126210;28;20039;-59
2022/11/26 07:14:02;;;;;;;9.05;4.55;;;9.50;97.70;;;;;;5126232;28;20053;-59
2022/11/26 07:16:27;;;;;;;9.48;5.10;;;9.50;97.70;;;;;;5090734;28;20028;-58
2022/11/26 07:18:55;;;;;;;8.20;4.47;;;9.50;97.70;;;;;;5107792;28;20047;-58
2022/11/26 07:21:20;;;;;;;9.25;4.95;;;9.50;97.70;;;;;;5090886;28;20069;-58
2022/11/26 07:23:46;;;;;;;9.77;4.78;;;9.50;98.00;;;;;;5086752;28;20028;-58
2022/11/26 07:26:12;;;;;;;7.82;4.03;;;9.50;97.80;;;;;;5105526;28;20094;-58
2022/11/26 07:28:37;;;;;;;7.32;4.70;;;9.50;97.80;;;;;;5087266;28;20039;-58
2022/11/26 07:31:04;;;;;;;6.90;4.63;;;9.50;97.80;;;;;;5086892;28;20044;-58
2022/11/26 07:33:30;;;;;;;7.07;4.82;;;9.50;97.80;;;;;;5087145;28;20028;-58
2022/11/26 07:36:00;;;;;;;6.97;4.60;;;9.40;97.70;;;;;;5053513;28;20039;-58
2022/11/26 07:38:26;;;;;;;9.85;4.95;;;9.50;97.70;;;;;;5105365;28;20084;-58
2022/11/26 07:40:52;;;;;;;9.10;5.25;;;9.50;97.70;;;;;;5070466;28;20034;-59
2022/11/26 07:43:17;;;;;;;8.00;4.25;;;9.50;97.70;;;;;;5086800;28;20043;-58
2022/11/26 07:45:43;;;;;;;9.48;5.20;;;9.50;97.70;;;;;;5084852;28;20032;-59
2022/11/26 07:48:08;;;;;;;9.90;4.47;;;9.50;97.70;;;;;;5103097;28;20020;-59
2022/11/26 07:50:34;;;;;;;11.15;5.20;;;9.40;97.70;;;;;;5084883;28;20155;-58
2022/11/26 07:52:59;;;;;;;7.35;4.63;;;9.40;97.60;;;;;;5103034;28;20020;-58
2022/11/26 07:55:25;;;;;;;10.13;4.65;;;9.50;97.60;;;;;;5084335;28;20031;-58
2022/11/26 07:57:50;;;;;;;7.60;4.57;;;9.40;97.70;;;;;;5104008;28;20062;-59
2022/11/26 08:00:16;;;;;;;7.63;4.60;;;9.40;97.60;;;;;;5069705;28;20035;-58
2022/11/26 08:02:42;;;;;;;8.20;5.05;;;9.40;97.60;;;;;;5086913;28;20016;-58
2022/11/26 08:05:08;;;;;;;8.55;4.72;;;9.40;97.70;;;;;;5086695;28;20348;-58
2022/11/26 08:07:34;;;;;;;6.50;4.30;;;9.40;97.70;;;;;;5105009;28;20383;-58
2022/11/26 08:10:00;;;;;;;9.35;5.00;;;9.40;97.80;;;;;;5105041;28;20031;-58
2022/11/26 08:12:25;;;;;;;8.55;4.85;;;9.40;97.80;;;;;;5086894;28;20060;-59
2022/11/26 08:14:51;;;;;;;10.10;4.55;;;9.40;97.80;;;;;;5069910;28;20028;-56
2022/11/26 08:17:16;;;;;;;10.43;4.63;;;9.40;97.80;;;;;;5086590;28;20031;-57
2022/11/26 08:19:42;;;;;;;7.78;5.20;;;9.40;97.80;;;;;;5104904;28;20020;-59
2022/11/26 08:22:08;;;;;;;10.75;5.05;;;9.40;97.80;;;;;;5104750;28;20069;-58
2022/11/26 08:24:34;;;;;;;7.00;5.25;;;9.40;97.90;;;;;;5104799;28;20020;-59
2022/11/26 08:27:00;;;;;;;11.23;4.85;;;9.40;97.80;;;;;;5105442;28;20035;-58
2022/11/26 08:29:25;;;;;;;7.78;4.95;;;9.40;97.80;;;;;;5069946;28;20080;-59
2022/11/26 08:31:51;;;;;;;9.60;4.63;;;9.40;97.80;;;;;;5104868;28;20384;-58
2022/11/26 08:34:16;;;;;;;5.90;4.68;;;9.40;97.80;;;;;;5104655;28;20024;-58
2022/11/26 08:36:42;;;;;;;9.98;4.90;;;9.40;97.80;;;;;;5121786;28;20032;-58
2022/11/26 08:39:10;;;;;;;12.27;4.78;;;9.40;97.80;;;;;;5116222;28;20043;-58
2022/11/26 08:41:36;;;;;;;10.85;5.38;;;9.40;97.80;;;;;;5093765;28;20036;-58
2022/11/26 08:44:02;;;;;;;9.80;4.55;;;9.40;97.90;;;;;;5129033;28;20077;-58
2022/11/26 08:46:27;;;;;;;7.97;4.78;;;9.40;97.90;;;;;;5109968;28;20074;-58
2022/11/26 08:48:56;;;;;;;8.02;4.85;;;9.40;98.00;;;;;;5093161;28;20465;-59
2022/11/26 08:51:22;;;;;;;6.72;4.47;;;9.40;97.90;;;;;;5110446;28;20085;-58
2022/11/26 08:53:47;;;;;;;10.68;5.07;;;9.40;97.90;;;;;;5110303;28;20035;-59
2022/11/26 08:56:13;;;;;;;8.18;5.45;;;9.40;97.90;;;;;;5127920;28;20055;-59
2022/11/26 08:58:40;;;;;;;6.15;5.32;;;9.40;98.10;;;;;;5126757;28;20016;-58
2022/11/26 09:01:16;;;;;;;10.27;5.93;;;9.30;98.20;;;;;;5109710;28;20108;-58
2022/11/26 09:03:41;;;;;;;13.43;6.00;;;9.20;98.60;;;;;;5094317;28;20035;-59
2022/11/26 09:06:07;;;;;;;9.20;6.15;;;9.10;99.10;;;;;;5110129;28;20065;-58
2022/11/26 09:11:21;;;;;;;7.50;6.07;;;8.90;99.90;;;;;;5128455;28;20039;-59
2022/11/26 09:13:46;;;;;;;12.30;6.93;;;8.80;99.90;;;;;;5093193;28;20058;-59
2022/11/26 09:16:12;;;;;;;10.98;6.53;;;8.70;99.90;;;;;;5093026;28;20020;-58
2022/11/26 09:18:37;;;;;;;11.48;6.20;;;8.70;99.90;;;;;;5128216;28;20045;-58
2022/11/26 09:21:03;;;;;;;12.18;6.25;;;8.70;99.90;;;;;;5110016;28;20039;-59
2022/11/26 09:23:29;;;;;;;10.13;6.43;;;8.70;99.90;;;;;;5092984;28;20118;-58
2022/11/26 09:25:54;;;;;;;10.07;6.05;;;8.80;99.90;;;;;;5109650;28;20032;-58
2022/11/26 09:28:20;;;;;;;9.77;5.90;;;8.80;99.90;;;;;;5109718;28;20508;-58
2022/11/26 09:30:45;;;;;;;9.10;6.22;;;8.80;99.90;;;;;;5110598;28;20032;-58
2022/11/26 09:33:11;;;;;;;15.07;6.72;;;8.90;99.90;;;;;;5110159;28;20016;-58
2022/11/26 09:35:36;;;;;;;16.83;6.68;;;8.90;99.90;;;;;;5109662;28;20028;-59
2022/11/26 09:38:02;;;;;;;20.23;6.97;;;9.00;99.90;;;;;;5128449;28;20472;-59
2022/11/26 09:40:38;;;;;;;25.63;8.55;;;9.00;99.90;;;;;;5107616;28;20406;-58
2022/11/26 09:43:06;;;;;;;24.25;8.40;;;9.10;99.90;;;;;;5093340;28;20038;-59
2022/11/26 09:45:34;;;;;;;27.00;7.97;;;9.10;99.90;;;;;;5092101;28;20119;-59
2022/11/26 09:47:59;;;;;;;26.27;8.32;;;9.10;99.90;;;;;;5105156;28;20039;-58
2022/11/26 09:50:30;;;;;;;21.48;7.75;;;9.20;99.90;;;;;;5088790;28;20093;-58
2022/11/26 09:53:01;;;;;;;29.65;8.80;;;9.20;99.90;;;;;;5106027;28;20055;-59
2022/11/26 09:55:30;;;;;;;32.88;9.93;;;9.20;99.90;;;;;;5088737;28;20036;-59
2022/11/26 09:58:22;;;;;;;33.53;9.90;;;9.20;99.90;;;;;;5106279;28;20051;-58
2022/11/26 10:00:50;;;;;;;31.17;9.43;;;9.30;99.90;;;;;;5104876;28;20078;-59
2022/11/26 10:03:24;;;;;;;55.78;10.30;;;9.30;99.90;;;;;;5105536;28;20016;-58
2022/11/26 10:06:06;;;;;;;54.33;11.27;;;9.30;99.90;;;;;;5105112;28;20047;-59
2022/11/26 10:08:47;;;;;;;76.88;13.23;;;9.40;99.90;;;;;;5105411;28;20166;-58
2022/11/26 10:11:18;;;;;;;107.88;15.23;;;9.40;99.90;;;;;;5106491;28;20054;-59
2022/11/26 10:14:02;;;;;;;121.90;16.02;;;9.50;99.90;;;;;;5106671;28;20028;-58
2022/11/26 10:16:43;;;;;;;92.18;15.07;;;9.50;99.90;;;;;;5107292;28;20028;-59
2022/11/26 10:19:18;;;;;;;73.70;13.00;;;9.50;99.90;;;;;;5106669;28;20047;-58
2022/11/26 10:21:45;;;;;;;99.47;15.20;;;9.50;99.90;;;;;;5106514;28;20028;-58
2022/11/26 10:24:19;;;;;;;81.22;15.35;;;9.60;99.90;;;;;;5105346;28;20315;-59
2022/11/26 10:26:45;;;;;;;126.60;18.33;;;9.60;99.90;;;;;;5088684;28;20028;-58
2022/11/26 10:29:14;;;;;;;128.45;17.70;;;9.60;99.90;;;;;;5105007;28;20031;-58
2022/11/26 10:31:41;;;;;;;83.80;14.63;;;9.60;99.90;;;;;;5105937;28;20043;-58
2022/11/26 10:34:13;;;;;;;85.65;14.95;;;9.70;99.90;;;;;;5104690;28;20035;-58
2022/11/26 10:36:40;;;;;;;123.25;17.55;;;9.70;99.90;;;;;;5104924;28;20044;-58
2022/11/26 10:39:06;;;;;;;88.65;15.43;;;9.70;99.90;;;;;;5104518;28;20027;-58
2022/11/26 10:41:35;;;;;;;119.15;16.20;;;9.70;99.90;;;;;;5104485;28;20074;-59
2022/11/26 10:44:30;;;;;;;160.55;21.20;;;9.80;99.90;;;;;;5087829;28;20054;-59
2022/11/26 10:46:56;;;;;;;130.70;18.70;;;9.80;99.90;;;;;;5104792;28;20048;-58
2022/11/26 10:49:28;;;;;;;116.93;18.75;;;9.80;99.90;;;;;;5104535;28;20034;-58
2022/11/26 10:51:59;;;;;;;159.57;22.65;;;9.90;99.90;;;;;;5104185;28;20047;-59
2022/11/26 10:54:32;;;;;;;163.88;20.98;;;9.90;99.90;;;;;;5104353;28;20095;-59
2022/11/26 10:57:03;;;;;;;171.45;22.60;;;9.90;99.90;;;;;;5105742;28;20149;-58
2022/11/26 10:59:39;;;;;;;186.93;25.30;;;10.00;99.90;;;;;;5103787;28;20036;-58
2022/11/26 11:02:35;;;;;;;330.15;38.03;;;10.10;99.90;;;;;;5087808;28;20096;-59
2022/11/26 11:05:03;;;;;;;174.30;23.48;;;10.10;99.90;;;;;;5103909;28;20472;-58
2022/11/26 11:07:38;;;;;;;153.77;23.45;;;10.20;99.90;;;;;;5104057;28;20039;-59
2022/11/26 11:10:10;;;;;;;176.25;23.55;;;10.20;99.90;;;;;;5104036;28;20043;-59
2022/11/26 11:12:36;;;;;;;165.43;24.08;;;10.20;99.90;;;;;;5103528;28;20093;-59
2022/11/26 11:15:19;;;;;;;242.02;27.42;;;10.30;99.90;;;;;;5086542;28;20108;-58
2022/11/26 11:17:45;;;;;;;183.85;26.08;;;10.30;99.90;;;;;;5105173;28;20082;-58
2022/11/26 11:20:13;;;;;;;174.50;25.00;;;10.30;99.90;;;;;;5103722;28;20391;-58
2022/11/26 11:22:39;;;;;;;202.35;26.67;;;10.40;99.90;;;;;;5103557;28;20032;-59
2022/11/26 11:25:05;;;;;;;242.32;30.15;;;10.40;99.90;;;;;;5103339;28;20032;-59
2022/11/26 11:27:40;;;;;;;204.45;25.67;;;10.50;99.90;;;;;;5103561;28;20032;-58
2022/11/26 11:30:07;;;;;;;;;;;10.50;99.90;;;;;;5104276;28;20198;-57
2022/11/26 11:32:37;;;;;;;174.20;23.85;;;10.50;99.90;;;;;;5107258;28;19919;-59
2022/11/26 11:35:20;;;;;;;134.52;22.35;;;10.50;99.90;;;;;;5105215;28;20058;-59
2022/11/26 11:37:51;;;;;;;208.43;23.83;;;10.60;99.90;;;;;;5090050;28;20036;-58
2022/11/26 11:40:19;;;;;;;182.90;25.15;;;10.60;99.90;;;;;;5072941;28;20032;-59
2022/11/26 11:42:58;;;;;;;186.13;24.83;;;10.70;99.90;;;;;;5124607;28;20031;-58
2022/11/26 11:45:33;;;;;;;222.60;27.08;;;10.70;99.90;;;;;;5088888;28;20449;-59
2022/11/26 11:48:18;;;;;;;150.43;21.25;;;10.70;99.90;;;;;;5090560;28;20066;-59
2022/11/26 11:50:49;;;;;;;199.80;25.08;;;10.80;99.90;;;;;;5125040;28;20418;-59
2022/11/26 11:53:25;;;;;;;171.52;22.55;;;10.80;99.90;;;;;;5073625;28;20043;-59
2022/11/26 11:56:10;;;;;;;156.43;22.27;;;10.80;99.90;;;;;;5090288;28;20066;-58
2022/11/26 11:59:00;;;;;;;148.25;21.73;;;10.90;99.90;;;;;;5108572;28;20035;-59
2022/11/26 12:02:01;;;;;;;143.85;20.92;;;10.90;99.90;;;;;;5124489;28;20043;-58
2022/11/26 12:05:20;;;;;;;139.80;19.95;;;10.90;99.90;;;;;;5092087;28;20122;-59
2022/11/26 12:07:57;;;;;;;165.77;23.33;;;11.00;99.90;;;;;;5021872;28;20041;-59
2022/11/26 12:10:26;;;;;;;186.98;23.58;;;11.00;99.90;;;;;;5089195;28;20059;-59
2022/11/26 12:12:55;;;;;;;180.18;22.85;;;11.00;99.90;;;;;;5106657;28;20031;-59
2022/11/26 12:15:23;;;;;;;165.68;21.50;;;11.00;99.90;;;;;;5088929;28;20023;-58
2022/11/26 12:17:54;;;;;;;214.98;23.33;;;11.10;99.90;;;;;;5125198;28;20020;-59
2022/11/26 12:20:25;;;;;;;153.65;21.20;;;11.10;99.90;;;;;;5106370;28;20483;-59
2022/11/26 12:23:24;;;;;;;165.05;22.70;;;11.10;99.90;;;;;;5106452;28;20015;-59
2022/11/26 12:25:59;;;;;;;169.18;21.80;;;11.10;99.90;;;;;;5124197;28;20035;-59
2022/11/26 12:28:27;;;;;;;145.70;20.52;;;11.10;99.90;;;;;;5090318;28;20089;-58
2022/11/26 12:31:13;;;;;;;132.80;19.35;;;11.10;99.90;;;;;;5105837;28;20058;-58
2022/11/26 12:33:42;;;;;;;;;;;11.20;99.90;;;;;;5091679;28;20031;-59
2022/11/26 12:36:20;;;;;;;157.95;20.42;;;11.20;99.80;;;;;;5124430;28;20368;-59
2022/11/26 12:38:52;;;;;;;162.75;21.13;;;11.20;99.70;;;;;;5090183;28;20099;-59
2022/11/26 12:41:20;;;;;;;145.95;19.00;;;11.20;99.70;;;;;;5089562;28;20059;-59
2022/11/26 12:43:51;;;;;;;172.23;20.50;;;11.20;99.70;;;;;;5089790;28;20036;-59
2022/11/26 12:46:21;;;;;;;101.72;17.05;;;11.20;99.50;;;;;;5105849;28;20027;-59
2022/11/26 12:49:00;;;;;;;143.57;19.33;;;11.20;99.50;;;;;;5089528;28;20087;-59
2022/11/26 12:51:52;;;;;;;139.10;20.70;;;11.20;99.40;;;;;;5105819;28;20027;-59